createdAt,value
2023-05-14T00:01:35.500Z,466.2
2023-05-14T00:03:18.894Z,467.3
2023-05-14T00:05:02.291Z,464.5
2023-05-14T00:06:45.667Z,462.5
2023-05-14T00:08:29.088Z,463.8
2023-05-14T00:10:12.471Z,462.7
2023-05-14T00:11:55.892Z,460.8
2023-05-14T00:13:39.262Z,461.1
2023-05-14T00:15:22.961Z,458.1
2023-05-14T00:17:06.358Z,456
2023-05-14T00:18:49.754Z,453.5
2023-05-14T00:20:33.133Z,454.3
2023-05-14T00:22:16.552Z,454.6
2023-05-14T00:23:59.952Z,457.1
2023-05-14T00:25:43.422Z,459.8
2023-05-14T00:27:26.754Z,459.6
2023-05-14T00:30:53.239Z,454.5
2023-05-14T00:32:36.592Z,452.1
2023-05-14T00:34:20.008Z,454
2023-05-14T00:36:03.392Z,453.7
2023-05-14T00:37:46.782Z,451.8
2023-05-14T00:39:30.188Z,452.1
2023-05-14T00:41:13.583Z,456.6
2023-05-14T00:42:56.994Z,455.8
2023-05-14T00:44:40.674Z,454.7
2023-05-14T00:46:24.081Z,454.2
2023-05-14T00:48:07.465Z,452.5
2023-05-14T00:49:50.881Z,451
2023-05-14T00:51:34.261Z,448.5
2023-05-14T00:53:17.666Z,447.5
2023-05-14T00:55:01.063Z,446.3
2023-05-14T00:56:44.437Z,447.2
2023-05-14T00:58:28.152Z,448.3
2023-05-14T01:00:11.549Z,443.6
2023-05-14T01:01:54.955Z,445.6
2023-05-14T01:03:38.347Z,447.1
2023-05-14T01:05:21.745Z,446.3
2023-05-14T01:07:05.135Z,446.6
2023-05-14T01:08:48.543Z,447.2
2023-05-14T01:10:31.937Z,445.1
2023-05-14T01:13:58.423Z,440.8
2023-05-14T01:15:41.816Z,439.3
2023-05-14T01:17:25.218Z,438.1
2023-05-14T01:19:08.569Z,437.2
2023-05-14T01:20:51.994Z,435.5
2023-05-14T01:22:35.383Z,434.8
2023-05-14T01:24:18.794Z,435.3
2023-05-14T01:26:02.183Z,439
2023-05-14T01:27:45.879Z,441.5
2023-05-14T01:29:29.266Z,444
2023-05-14T01:31:12.714Z,444.1
2023-05-14T01:32:56.069Z,445.3
2023-05-14T01:34:39.462Z,445.6
2023-05-14T01:36:22.857Z,446.3
2023-05-14T01:38:06.421Z,445.1
2023-05-14T01:39:49.648Z,443.2
2023-05-14T01:43:16.126Z,443.2
2023-05-14T01:44:59.502Z,442.7
2023-05-14T01:46:42.905Z,441.3
2023-05-14T01:48:26.301Z,441
2023-05-14T01:50:09.695Z,443.7
2023-05-14T01:51:53.098Z,443.4
2023-05-14T01:53:36.487Z,443
2023-05-14T01:55:19.884Z,443
2023-05-14T01:58:46.355Z,441.6
2023-05-14T02:00:29.745Z,440.6
2023-05-14T02:02:13.159Z,439.6
2023-05-14T02:03:56.549Z,442.2
2023-05-14T02:05:40.052Z,441.8
2023-05-14T02:07:23.341Z,441.7
2023-05-14T02:09:06.827Z,441.6
2023-05-14T02:10:50.137Z,441
2023-05-14T02:14:16.611Z,433.3
2023-05-14T02:16:00.006Z,431.6
2023-05-14T02:17:43.437Z,435.4
2023-05-14T02:19:26.809Z,436.1
2023-05-14T02:21:10.190Z,436.4
2023-05-14T02:22:53.589Z,434.1
2023-05-14T02:24:36.994Z,436
2023-05-14T02:26:20.389Z,440
2023-05-14T02:29:46.855Z,444.5
2023-05-14T02:31:30.270Z,443.4
2023-05-14T02:33:13.663Z,440.2
2023-05-14T02:34:57.047Z,440.5
2023-05-14T02:36:40.425Z,439.5
2023-05-14T02:38:23.844Z,439
2023-05-14T02:40:07.230Z,440.5
2023-05-14T02:41:50.646Z,441.5
2023-05-14T02:45:17.091Z,442
2023-05-14T02:47:00.527Z,444.6
2023-05-14T02:48:43.906Z,444
2023-05-14T02:50:27.310Z,441.3
2023-05-14T02:52:10.730Z,440.5
2023-05-14T02:53:54.088Z,443
2023-05-14T02:55:37.483Z,440.8
2023-05-14T02:57:20.863Z,438
2023-05-14T03:00:47.366Z,433.5
2023-05-14T03:02:30.762Z,434.4
2023-05-14T03:04:14.143Z,435.7
2023-05-14T03:05:57.528Z,433.3
2023-05-14T03:07:40.927Z,433
2023-05-14T03:09:24.337Z,432.3
2023-05-14T03:11:07.737Z,432.2
2023-05-14T03:12:51.123Z,431
2023-05-14T03:16:17.605Z,430.7
2023-05-14T03:18:01.001Z,429.3
2023-05-14T03:19:44.399Z,426.3
2023-05-14T03:21:27.790Z,426.5
2023-05-14T03:23:11.204Z,429
2023-05-14T03:24:54.578Z,430.5
2023-05-14T03:26:37.995Z,431.2
2023-05-14T03:28:21.372Z,430.5
2023-05-14T03:33:30.607Z,431
2023-05-14T03:35:13.999Z,430
2023-05-14T03:36:57.420Z,428.8
2023-05-14T03:38:40.801Z,429.2
2023-05-14T03:40:24.223Z,428.6
2023-05-14T03:42:07.587Z,428.3
2023-05-14T03:43:51.001Z,429
2023-05-14T03:45:34.390Z,428.3
2023-05-14T03:49:00.855Z,426.1
2023-05-14T03:50:44.247Z,425.8
2023-05-14T03:52:27.644Z,424.6
2023-05-14T03:54:11.063Z,423.5
2023-05-14T03:55:54.446Z,423.2
2023-05-14T03:57:37.839Z,424.2
2023-05-14T03:59:21.257Z,424.1
2023-05-14T04:01:04.619Z,425.8
2023-05-14T04:02:48.021Z,426.4
2023-05-14T04:06:14.521Z,429.7
2023-05-14T04:07:57.893Z,429.1
2023-05-14T04:09:41.296Z,431.6
2023-05-14T04:11:24.716Z,432.3
2023-05-14T04:13:08.082Z,429.6
2023-05-14T04:14:51.480Z,427.7
2023-05-14T04:16:34.874Z,428
2023-05-14T04:18:18.265Z,427.8
2023-05-14T04:21:44.740Z,426.3
2023-05-14T04:23:28.159Z,424.5
2023-05-14T04:25:11.542Z,424.1
2023-05-14T04:26:54.925Z,426.6
2023-05-14T04:28:38.323Z,426.8
2023-05-14T04:30:21.729Z,425.4
2023-05-14T04:32:05.124Z,426.4
2023-05-14T04:33:48.523Z,427.2
2023-05-14T04:37:14.972Z,428
2023-05-14T04:38:58.387Z,429.7
2023-05-14T04:40:41.780Z,430.4
2023-05-14T04:42:25.169Z,427.6
2023-05-14T04:44:08.571Z,428.7
2023-05-14T04:45:51.952Z,428.5
2023-05-14T04:47:35.362Z,429.6
2023-05-14T04:49:18.755Z,428
2023-05-14T04:52:45.216Z,425.7
2023-05-14T04:54:28.625Z,424.7
2023-05-14T04:56:12.027Z,424.7
2023-05-14T04:57:55.427Z,425.3
2023-05-14T04:59:38.822Z,426.1
2023-05-14T05:01:22.216Z,428.4
2023-05-14T05:03:05.607Z,428
2023-05-14T05:04:49.001Z,428.8
2023-05-14T05:08:15.482Z,426.5
2023-05-14T05:09:58.870Z,423.5
2023-05-14T05:11:42.275Z,424.2
2023-05-14T05:13:25.666Z,424.5
2023-05-14T05:15:09.057Z,424.4
2023-05-14T05:16:52.457Z,424.4
2023-05-14T05:18:35.878Z,424.1
2023-05-14T05:20:19.251Z,424.5
2023-05-14T05:23:45.718Z,427.9
2023-05-14T05:25:29.112Z,427.6
2023-05-14T05:27:12.504Z,427.4
2023-05-14T05:28:55.910Z,428
2023-05-14T05:30:39.295Z,428.5
2023-05-14T05:32:22.715Z,427.4
2023-05-14T05:34:06.086Z,427.7
2023-05-14T05:35:49.483Z,428.8
2023-05-14T05:39:15.974Z,430.1
2023-05-14T05:40:59.392Z,428.4
2023-05-14T05:42:42.813Z,427.2
2023-05-14T05:44:26.163Z,427.7
2023-05-14T05:46:09.559Z,429.1
2023-05-14T05:47:52.932Z,430
2023-05-14T05:49:36.327Z,431.3
2023-05-14T05:51:19.754Z,432.2
2023-05-14T05:53:03.435Z,430.5
2023-05-14T05:54:46.843Z,428.3
2023-05-14T05:56:30.232Z,429.2
2023-05-14T05:58:13.641Z,428.3
2023-05-14T05:59:57.015Z,428.2
2023-05-14T06:01:40.424Z,427.2
2023-05-14T06:03:23.821Z,427.2
2023-05-14T06:05:07.198Z,426.7
2023-05-14T06:08:33.676Z,428.7
2023-05-14T06:10:17.103Z,427.5
2023-05-14T06:12:00.518Z,427.2
2023-05-14T06:13:43.877Z,426.8
2023-05-14T06:15:27.272Z,427.4
2023-05-14T06:17:10.679Z,425.8
2023-05-14T06:18:54.059Z,424.6
2023-05-14T06:24:03.304Z,425.5
2023-05-14T06:25:46.687Z,425.4
2023-05-14T06:27:30.086Z,426.4
2023-05-14T06:29:13.473Z,424.2
2023-05-14T06:30:56.906Z,423.8
2023-05-14T06:32:40.289Z,424.8
2023-05-14T06:34:23.679Z,422
2023-05-14T06:36:07.128Z,422.6
2023-05-14T06:39:33.532Z,426.6
2023-05-14T06:41:16.935Z,429
2023-05-14T06:43:00.358Z,428.4
2023-05-14T06:44:43.758Z,428.6
2023-05-14T06:46:27.163Z,430.3
2023-05-14T06:48:10.546Z,430.2
2023-05-14T06:49:53.930Z,428.4
2023-05-14T06:51:37.318Z,426.1
2023-05-14T06:53:21.055Z,425.3
2023-05-14T06:55:04.422Z,426.4
2023-05-14T06:56:47.833Z,427.3
2023-05-14T06:58:31.229Z,428
2023-05-14T07:00:14.606Z,428
2023-05-14T07:01:58.011Z,427.8
2023-05-14T07:03:41.475Z,427.2
2023-05-14T07:05:24.815Z,430.1
2023-05-14T07:08:51.273Z,432.7
2023-05-14T07:10:34.684Z,432.1
2023-05-14T07:12:18.077Z,433.1
2023-05-14T07:14:01.468Z,431
2023-05-14T07:15:44.882Z,431.3
2023-05-14T07:17:28.244Z,433.1
2023-05-14T07:19:11.644Z,431.2
2023-05-14T07:20:55.068Z,428.5
2023-05-14T07:26:04.293Z,429.8
2023-05-14T07:27:47.678Z,430.6
2023-05-14T07:29:31.088Z,431.1
2023-05-14T07:31:14.497Z,432.3
2023-05-14T07:32:57.881Z,431
2023-05-14T07:34:41.284Z,428.1
2023-05-14T07:36:24.678Z,425.7
2023-05-14T07:38:08.073Z,426.7
2023-05-14T07:39:51.763Z,426.2
2023-05-14T07:41:35.153Z,422.4
2023-05-14T07:43:18.559Z,417.3
2023-05-14T07:45:01.948Z,417.7
2023-05-14T07:46:45.352Z,420
2023-05-14T07:48:28.757Z,417.8
2023-05-14T07:50:12.137Z,418.6
2023-05-14T07:51:55.535Z,417.8
2023-05-14T07:55:22.013Z,420.5
2023-05-14T07:57:05.420Z,420.7
2023-05-14T07:58:48.807Z,421.6
2023-05-14T08:00:32.191Z,421.3
2023-05-14T08:02:15.608Z,419.4
2023-05-14T08:03:59.000Z,421.4
2023-05-14T08:05:42.390Z,420.2
2023-05-14T08:07:25.789Z,420.8
2023-05-14T08:10:52.314Z,419.9
2023-05-14T08:12:35.720Z,417.3
2023-05-14T08:14:19.087Z,416.7
2023-05-14T08:16:02.458Z,420.1
2023-05-14T08:17:45.849Z,420.1
2023-05-14T08:19:29.350Z,421
2023-05-14T08:21:12.651Z,419.8
2023-05-14T08:22:56.038Z,419.7
2023-05-14T08:24:39.760Z,419.6
2023-05-14T08:26:23.203Z,423
2023-05-14T08:28:06.548Z,425.2
2023-05-14T08:29:49.969Z,426
2023-05-14T08:31:33.353Z,425.7
2023-05-14T08:33:16.734Z,425.2
2023-05-14T08:35:00.180Z,423.3
2023-05-14T08:36:43.543Z,420.3
2023-05-14T08:40:10.022Z,418.8
2023-05-14T08:41:53.496Z,416.5
2023-05-14T08:43:36.796Z,416.1
2023-05-14T08:45:20.241Z,419.6
2023-05-14T08:47:03.570Z,421.3
2023-05-14T08:48:46.992Z,423
2023-05-14T08:50:30.377Z,423.7
2023-05-14T08:52:13.769Z,424.7
2023-05-14T08:55:40.249Z,421.8
2023-05-14T08:57:23.680Z,419.8
2023-05-14T08:59:07.034Z,419.7
2023-05-14T09:00:50.433Z,418.7
2023-05-14T09:02:33.818Z,418.6
2023-05-14T09:04:17.219Z,419.8
2023-05-14T09:06:00.627Z,422.3
2023-05-14T09:07:44.008Z,425.3
2023-05-14T09:11:10.502Z,425.1
2023-05-14T09:12:53.957Z,423.1
2023-05-14T09:14:37.278Z,420.2
2023-05-14T09:16:20.672Z,416.5
2023-05-14T09:18:04.080Z,415.2
2023-05-14T09:21:30.854Z,415.1
2023-05-14T09:23:14.248Z,414.6
2023-05-14T09:26:40.723Z,415.8
2023-05-14T09:28:24.121Z,415.7
2023-05-14T09:30:07.540Z,414.4
2023-05-14T09:31:50.913Z,415.7
2023-05-14T09:33:34.316Z,414.4
2023-05-14T09:35:17.726Z,413
2023-05-14T09:37:01.105Z,412.7
2023-05-14T09:38:44.502Z,413.3
2023-05-14T09:42:10.994Z,417.2
2023-05-14T09:43:54.376Z,417
2023-05-14T09:45:37.903Z,415.2
2023-05-14T09:47:21.279Z,413.5
2023-05-14T09:49:04.701Z,412.4
2023-05-14T09:50:48.116Z,414
2023-05-14T09:52:31.363Z,413
2023-05-14T09:57:40.598Z,414.5
2023-05-14T09:59:24.051Z,413.2
2023-05-14T10:01:07.396Z,412.6
2023-05-14T10:02:50.792Z,412
2023-05-14T10:04:34.223Z,412.7
2023-05-14T10:06:17.578Z,414
2023-05-14T10:08:01.059Z,411.8
2023-05-14T10:09:44.370Z,411.5
2023-05-14T10:11:28.140Z,416.4
2023-05-14T10:13:11.553Z,427.1
2023-05-14T10:14:54.865Z,433.1
2023-05-14T10:16:38.250Z,432.4
2023-05-14T10:18:21.667Z,427.7
2023-05-14T10:20:05.053Z,424.4
2023-05-14T10:21:48.452Z,423.3
2023-05-14T10:23:31.846Z,423.1
2023-05-14T10:26:58.320Z,422.6
2023-05-14T10:28:41.722Z,423
2023-05-14T10:30:25.121Z,423.6
2023-05-14T10:32:08.529Z,425.3
2023-05-14T10:33:51.893Z,423.8
2023-05-14T10:35:35.336Z,423.5
2023-05-14T10:37:18.750Z,425.1
2023-05-14T10:42:27.941Z,423.9
2023-05-14T10:44:11.334Z,422
2023-05-14T10:45:54.725Z,420.3
2023-05-14T10:47:38.189Z,419.8
2023-05-14T10:49:21.509Z,417
2023-05-14T10:51:04.908Z,417.1
2023-05-14T10:52:48.352Z,418.4
2023-05-14T10:54:31.753Z,418.6
2023-05-14T10:56:15.467Z,419.2
2023-05-14T10:57:58.822Z,420.2
2023-05-14T10:59:42.194Z,426
2023-05-14T11:01:25.592Z,427.3
2023-05-14T11:03:09.088Z,428.3
2023-05-14T11:04:52.408Z,433.7
2023-05-14T11:06:35.869Z,441.7
2023-05-14T11:11:45.025Z,447.1
2023-05-14T11:13:28.426Z,444.7
2023-05-14T11:15:11.838Z,442.3
2023-05-14T11:16:55.242Z,444.4
2023-05-14T11:18:38.659Z,443.7
2023-05-14T11:20:22.020Z,441.7
2023-05-14T11:22:05.424Z,441
2023-05-14T11:25:31.879Z,438.7
2023-05-14T11:27:15.275Z,438.1
2023-05-14T11:28:58.674Z,440.6
2023-05-14T11:30:42.072Z,441
2023-05-14T11:32:25.475Z,438.6
2023-05-14T11:34:08.850Z,440.1
2023-05-14T11:35:52.248Z,440.2
2023-05-14T11:41:01.529Z,439.5
2023-05-14T11:42:44.920Z,440.5
2023-05-14T11:44:28.321Z,441
2023-05-14T11:46:11.716Z,438.6
2023-05-14T11:47:55.095Z,437.2
2023-05-14T11:49:38.492Z,436.6
2023-05-14T11:51:21.892Z,434.8
2023-05-14T11:56:31.141Z,437.2
2023-05-14T11:58:14.529Z,436.7
2023-05-14T11:59:58.077Z,437.4
2023-05-14T12:03:24.704Z,440
2023-05-14T12:05:08.101Z,442.4
2023-05-14T12:06:51.525Z,444
2023-05-14T12:12:00.747Z,443
2023-05-14T12:13:44.148Z,440.6
2023-05-14T12:15:27.708Z,438.8
2023-05-14T12:17:10.912Z,438.3
2023-05-14T12:18:54.366Z,438.4
2023-05-14T12:20:37.712Z,436.7
2023-05-14T12:22:21.122Z,437.2
2023-05-14T12:25:47.592Z,434
2023-05-14T12:27:31.015Z,433.1
2023-05-14T12:29:14.392Z,433.6
2023-05-14T12:30:57.793Z,432.8
2023-05-14T12:32:41.166Z,432.1
2023-05-14T12:34:24.623Z,433.3
2023-05-14T12:36:07.978Z,438.5
2023-05-14T12:41:17.197Z,438.8
2023-05-14T12:43:00.637Z,439.8
2023-05-14T12:44:43.997Z,439.2
2023-05-14T12:46:27.399Z,437.6
2023-05-14T12:48:10.805Z,437.4
2023-05-14T12:49:54.173Z,439.1
2023-05-14T12:51:37.584Z,439
2023-05-14T12:55:04.061Z,436.1
2023-05-14T12:56:47.440Z,435.7
2023-05-14T12:58:30.853Z,434.7
2023-05-14T13:00:14.238Z,435.8
2023-05-14T13:01:57.644Z,435
2023-05-14T13:03:41.118Z,433.3
2023-05-14T13:05:24.426Z,433
2023-05-14T13:07:07.826Z,431.5
2023-05-14T13:08:51.537Z,430.5
2023-05-14T13:10:34.921Z,428.7
2023-05-14T13:12:18.344Z,428.4
2023-05-14T13:14:01.754Z,427.4
2023-05-14T13:15:45.128Z,430.5
2023-05-14T13:17:28.500Z,433.3
2023-05-14T13:19:11.910Z,430.1
2023-05-14T13:20:55.380Z,427.8
2023-05-14T13:24:21.767Z,429.1
2023-05-14T13:26:05.158Z,432.3
2023-05-14T13:27:48.574Z,431.5
2023-05-14T13:31:15.374Z,430.8
2023-05-14T13:32:58.732Z,431
2023-05-14T13:34:42.137Z,429.2
2023-05-14T13:39:51.391Z,427.5
2023-05-14T13:41:34.776Z,428.6
2023-05-14T13:43:18.179Z,429.8
2023-05-14T13:45:01.571Z,430.3
2023-05-14T13:46:45.021Z,431.8
2023-05-14T13:48:28.365Z,431.8
2023-05-14T13:50:11.930Z,431.7
2023-05-14T13:53:38.393Z,432.7
2023-05-14T13:55:21.724Z,431
2023-05-14T13:57:05.142Z,429.4
2023-05-14T13:58:48.595Z,428.8
2023-05-14T14:00:31.993Z,431.1
2023-05-14T14:02:15.386Z,430.8
2023-05-14T14:03:58.707Z,432.6
2023-05-14T14:07:25.223Z,433.5
2023-05-14T14:09:08.612Z,433
2023-05-14T14:10:51.906Z,435.3
2023-05-14T14:12:35.288Z,437.2
2023-05-14T14:14:18.747Z,436
2023-05-14T14:16:02.186Z,435.2
2023-05-14T14:17:45.582Z,435.7
2023-05-14T14:19:28.981Z,436.6
2023-05-14T14:21:12.743Z,437.9
2023-05-14T14:22:56.164Z,435.1
2023-05-14T14:24:39.445Z,434.3
2023-05-14T14:26:22.868Z,433.4
2023-05-14T14:28:06.262Z,431.7
2023-05-14T14:29:49.594Z,430.4
2023-05-14T14:31:33.045Z,431.8
2023-05-14T14:33:16.422Z,431.8
2023-05-14T14:35:00.039Z,432.7
2023-05-14T14:36:43.452Z,432
2023-05-14T14:38:26.834Z,431.8
2023-05-14T14:40:10.272Z,433.4
2023-05-14T14:41:53.643Z,433.4
2023-05-14T14:43:37.029Z,433.1
2023-05-14T14:45:20.420Z,433.7
2023-05-14T14:47:03.844Z,434.1
2023-05-14T14:48:47.632Z,430
2023-05-14T14:50:31.018Z,428.6
2023-05-14T14:52:14.346Z,426.1
2023-05-14T14:53:57.698Z,424.7
2023-05-14T14:55:41.082Z,424.5
2023-05-14T14:57:24.579Z,424.8
2023-05-14T14:59:07.950Z,424.6
2023-05-14T15:00:51.286Z,421.2
2023-05-14T15:02:35.048Z,420.9
2023-05-14T15:04:18.389Z,421.7
2023-05-14T15:06:01.796Z,418.6
2023-05-14T15:07:45.177Z,419.7
2023-05-14T15:09:28.581Z,421.1
2023-05-14T15:11:12.061Z,420.3
2023-05-14T15:12:55.368Z,421.5
2023-05-14T15:14:38.774Z,422.7
2023-05-14T15:18:05.268Z,422
2023-05-14T15:19:48.631Z,422.2
2023-05-14T15:21:32.028Z,422
2023-05-14T15:23:15.433Z,423.2
2023-05-14T15:24:58.818Z,423.7
2023-05-14T15:26:42.263Z,427.1
2023-05-14T15:28:25.643Z,428.8
2023-05-14T15:31:52.084Z,428.7
2023-05-14T15:33:35.491Z,427.3
2023-05-14T15:35:18.872Z,428.2
2023-05-14T15:37:02.270Z,428.2
2023-05-14T15:38:45.689Z,427
2023-05-14T15:40:29.065Z,425.6
2023-05-14T15:42:12.446Z,427.2
2023-05-14T15:43:55.883Z,427.1
2023-05-14T15:45:39.557Z,426.1
2023-05-14T15:47:23.013Z,421.4
2023-05-14T15:49:06.347Z,421.4
2023-05-14T15:50:49.765Z,421.2
2023-05-14T15:52:33.148Z,421.7
2023-05-14T15:54:16.524Z,423.2
2023-05-14T15:55:59.942Z,419.7
2023-05-14T15:57:43.338Z,421.4
2023-05-14T16:01:09.831Z,419.6
2023-05-14T16:02:53.184Z,422.4
2023-05-14T16:04:36.594Z,424
2023-05-14T16:06:19.988Z,424.3
2023-05-14T16:08:03.405Z,425.3
2023-05-14T16:09:46.841Z,425.1
2023-05-14T16:11:30.155Z,424.7
2023-05-14T16:14:56.634Z,423.5
2023-05-14T16:16:40.063Z,422.2
2023-05-14T16:18:23.436Z,422.8
2023-05-14T16:20:06.846Z,424.6
2023-05-14T16:21:50.244Z,424.7
2023-05-14T16:23:33.621Z,426
2023-05-14T16:25:17.020Z,426.6
2023-05-14T16:30:26.258Z,426.2
2023-05-14T16:32:09.667Z,426.5
2023-05-14T16:33:53.054Z,426.8
2023-05-14T16:35:36.459Z,426.5
2023-05-14T16:37:19.853Z,427.2
2023-05-14T16:39:03.245Z,429.1
2023-05-14T16:40:46.646Z,429.6
2023-05-14T16:44:13.108Z,429.3
2023-05-14T16:45:56.503Z,428.4
2023-05-14T16:47:39.888Z,428.1
2023-05-14T16:49:23.295Z,428.2
2023-05-14T16:51:06.683Z,427.4
2023-05-14T16:52:50.093Z,428.3
2023-05-14T16:54:33.487Z,428.4
2023-05-14T16:56:16.878Z,428
2023-05-14T16:59:43.343Z,433.5
2023-05-14T17:01:26.768Z,436.5
2023-05-14T17:03:10.139Z,437.5
2023-05-14T17:04:53.554Z,440.2
2023-05-14T17:06:36.959Z,447.2
2023-05-14T17:08:20.316Z,454.3
2023-05-14T17:10:03.727Z,462
2023-05-14T17:11:47.115Z,470.1
2023-05-14T17:13:30.900Z,495
2023-05-14T17:15:14.256Z,512
2023-05-14T17:16:57.610Z,522.5
2023-05-14T17:18:40.995Z,533.5
2023-05-14T17:20:24.416Z,543
2023-05-14T17:22:07.821Z,550
2023-05-14T17:23:51.214Z,555.4
2023-05-14T17:25:34.597Z,560.8
2023-05-14T17:29:01.058Z,573
2023-05-14T17:30:44.473Z,591.3
2023-05-14T17:32:27.846Z,606.8
2023-05-14T17:34:11.277Z,614.8
2023-05-14T17:35:54.649Z,618.6
2023-05-14T17:37:38.063Z,622.6
2023-05-14T17:39:21.466Z,621.4
2023-05-14T17:42:47.936Z,627.6
2023-05-14T17:44:31.348Z,626
2023-05-14T17:46:14.764Z,621.1
2023-05-14T17:47:58.199Z,619
2023-05-14T17:49:41.573Z,620
2023-05-14T17:51:24.976Z,621.3
2023-05-14T17:53:08.319Z,620
2023-05-14T17:54:51.769Z,617.5
2023-05-14T17:58:18.194Z,617.8
2023-05-14T18:00:01.552Z,617.5
2023-05-14T18:01:44.965Z,617.8
2023-05-14T18:03:28.508Z,616.7
2023-05-14T18:05:11.794Z,616
2023-05-14T18:06:55.153Z,615.7
2023-05-14T18:08:38.580Z,616.3
2023-05-14T18:13:47.917Z,613.8
2023-05-14T18:15:31.307Z,615.2
2023-05-14T18:17:14.597Z,616.5
2023-05-14T18:18:57.984Z,613.1
2023-05-14T18:20:41.470Z,607.1
2023-05-14T18:22:24.773Z,602.4
2023-05-14T18:24:08.184Z,599.7
2023-05-14T18:25:51.572Z,599.8
2023-05-14T18:27:35.393Z,598.4
2023-05-14T18:29:18.668Z,596.7
2023-05-14T18:31:02.073Z,595.3
2023-05-14T18:32:45.575Z,594.2
2023-05-14T18:34:28.862Z,594.6
2023-05-14T18:36:12.254Z,594.1
2023-05-14T18:37:55.657Z,591.5
2023-05-14T18:39:39.093Z,587.3
2023-05-14T18:43:05.558Z,585.2
2023-05-14T18:44:48.924Z,584.6
2023-05-14T18:46:32.307Z,583.5
2023-05-14T18:48:15.699Z,582.6
2023-05-14T18:49:59.105Z,584.2
2023-05-14T18:51:42.494Z,582
2023-05-14T18:53:25.950Z,582
2023-05-14T18:58:35.165Z,580.3
2023-05-14T19:00:18.598Z,579
2023-05-14T19:02:01.929Z,577.1
2023-05-14T19:03:45.322Z,576
2023-05-14T19:05:28.777Z,574.4
2023-05-14T19:07:12.127Z,572
2023-05-14T19:08:55.540Z,569.7
2023-05-14T19:12:21.994Z,571.3
2023-05-14T19:14:05.410Z,571.5
2023-05-14T19:15:48.959Z,569
2023-05-14T19:17:32.333Z,566.7
2023-05-14T19:19:15.733Z,566.6
2023-05-14T19:20:58.989Z,563.6
2023-05-14T19:22:42.368Z,563.3
2023-05-14T19:24:25.990Z,562.5
2023-05-14T19:26:09.496Z,563.4
2023-05-14T19:27:52.979Z,560
2023-05-14T19:29:36.395Z,556.3
2023-05-14T19:31:19.794Z,555.6
2023-05-14T19:33:03.160Z,555.1
2023-05-14T19:34:46.594Z,553.5
2023-05-14T19:36:29.966Z,551.6
2023-05-14T19:38:13.256Z,547.8
2023-05-14T19:41:39.928Z,546.4
2023-05-14T19:43:23.256Z,548.4
2023-05-14T19:45:06.673Z,549.4
2023-05-14T19:46:50.062Z,550.1
2023-05-14T19:48:33.372Z,550.4
2023-05-14T19:50:16.694Z,548.5
2023-05-14T19:52:00.189Z,545.5
2023-05-14T19:57:09.500Z,543.9
2023-05-14T19:58:52.891Z,542.4
2023-05-14T20:00:36.126Z,540.2
2023-05-14T20:02:19.722Z,542.1
2023-05-14T20:04:02.961Z,544
2023-05-14T20:05:46.464Z,544.6
2023-05-14T20:07:29.855Z,541.8
2023-05-14T20:10:56.365Z,539.1
2023-05-14T20:12:39.780Z,537.7
2023-05-14T20:14:23.092Z,538.2
2023-05-14T20:16:06.552Z,536.7
2023-05-14T20:17:49.963Z,544.4
2023-05-14T20:19:33.321Z,554
2023-05-14T20:21:16.731Z,553.7
2023-05-14T20:23:00.124Z,554.5
2023-05-14T20:24:43.866Z,552.5
2023-05-14T20:26:27.076Z,551.3
2023-05-14T20:28:10.634Z,551
2023-05-14T20:29:54.066Z,552.8
2023-05-14T20:31:37.403Z,554.2
2023-05-14T20:33:20.760Z,552.2
2023-05-14T20:35:04.189Z,551.4
2023-05-14T20:36:47.639Z,550
2023-05-14T20:40:14.109Z,552.4
2023-05-14T20:41:57.510Z,551.8
2023-05-14T20:43:40.698Z,551.1
2023-05-14T20:45:24.251Z,550.2
2023-05-14T20:47:07.716Z,547.3
2023-05-14T20:48:51.040Z,546
2023-05-14T20:50:34.387Z,547
2023-05-14T20:52:17.717Z,547.1
2023-05-14T20:54:01.525Z,545.6
2023-05-14T20:55:45.048Z,547.1
2023-05-14T20:57:28.332Z,543.5
2023-05-14T20:59:11.796Z,537.6
2023-05-14T21:00:55.151Z,534.6
2023-05-14T21:02:38.498Z,536.1
2023-05-14T21:04:21.989Z,535.4
2023-05-14T21:06:05.413Z,533.7
2023-05-14T21:09:31.800Z,533.4
2023-05-14T21:11:15.179Z,530.4
2023-05-14T21:12:58.481Z,528.5
2023-05-14T21:14:42.014Z,527.6
2023-05-14T21:16:25.197Z,527.7
2023-05-14T21:18:08.661Z,526.1
2023-05-14T21:19:52.180Z,521.7
2023-05-14T21:21:35.451Z,522
2023-05-14T21:25:02.076Z,520.2
2023-05-14T21:26:45.316Z,518.4
2023-05-14T21:28:28.826Z,513.8
2023-05-14T21:30:12.173Z,513.5
2023-05-14T21:31:55.635Z,514
2023-05-14T21:33:39.061Z,516.3
2023-05-14T21:35:22.247Z,517.8
2023-05-14T21:37:05.847Z,515
2023-05-14T21:38:49.504Z,514.6
2023-05-14T21:40:32.850Z,517
2023-05-14T21:42:16.144Z,519.2
2023-05-14T21:43:59.729Z,519.1
2023-05-14T21:45:43.003Z,517.5
2023-05-14T21:47:26.320Z,519
2023-05-14T21:49:09.717Z,519.6
2023-05-14T21:50:53.140Z,517.5
2023-05-14T21:56:02.473Z,514.9
2023-05-14T21:57:45.759Z,514.6
2023-05-14T21:59:29.157Z,514
2023-05-14T22:01:12.547Z,514.7
2023-05-14T22:02:55.953Z,514.7
2023-05-14T22:04:39.448Z,513.8
2023-05-14T22:06:22.896Z,511.2
2023-05-14T22:08:06.226Z,508.8
2023-05-14T22:11:32.688Z,507.9
2023-05-14T22:13:15.997Z,507.6
2023-05-14T22:14:59.390Z,505.1
2023-05-14T22:16:42.843Z,508
2023-05-14T22:18:26.242Z,510.8
2023-05-14T22:20:09.592Z,509.7
2023-05-14T22:21:52.996Z,508.1
2023-05-14T22:23:36.371Z,504.1
2023-05-14T22:27:02.990Z,499.6
2023-05-14T22:28:46.320Z,498.2
2023-05-14T22:30:29.728Z,499.2
2023-05-14T22:32:13.056Z,500.3
2023-05-14T22:33:56.458Z,500.5
2023-05-14T22:35:39.918Z,497.4
2023-05-14T22:37:23.455Z,495.1
2023-05-14T22:39:06.622Z,494.1
2023-05-14T22:42:33.099Z,488.1
2023-05-14T22:44:16.499Z,490.1
2023-05-14T22:45:59.898Z,494.7
2023-05-14T22:47:43.308Z,495.6
2023-05-14T22:49:26.670Z,496.6
2023-05-14T22:51:10.179Z,498.5
2023-05-14T22:52:53.493Z,499.5
2023-05-14T22:54:36.906Z,499.8
2023-05-14T22:56:20.691Z,498.3
2023-05-14T22:58:04.091Z,500.3
2023-05-14T22:59:47.429Z,498.2
2023-05-14T23:01:30.871Z,498.1
2023-05-14T23:03:14.166Z,497
2023-05-14T23:04:57.621Z,496.2
2023-05-14T23:06:40.962Z,495.3
2023-05-14T23:08:24.421Z,494.8
2023-05-14T23:11:50.837Z,492
2023-05-14T23:13:34.238Z,490
2023-05-14T23:15:17.712Z,490.8
2023-05-14T23:17:01.011Z,490.6
2023-05-14T23:18:44.431Z,489.2
2023-05-14T23:20:27.803Z,487.8
2023-05-14T23:22:11.192Z,485.7
2023-05-14T23:23:54.614Z,484.2
2023-05-14T23:25:38.304Z,484
2023-05-14T23:27:21.729Z,484.8
2023-05-14T23:29:05.123Z,480.3
2023-05-14T23:30:48.541Z,479.7
2023-05-14T23:32:31.873Z,482.1
2023-05-14T23:34:15.287Z,482.8
2023-05-14T23:35:58.805Z,481.5
2023-05-14T23:37:42.091Z,480.6
2023-05-14T23:41:08.593Z,481.6
2023-05-14T23:42:51.942Z,483
2023-05-14T23:44:35.369Z,482.2
2023-05-14T23:46:18.770Z,479.7
2023-05-14T23:48:02.199Z,479.5
2023-05-14T23:49:45.543Z,479.5
2023-05-14T23:51:29.064Z,479.1
2023-05-14T23:53:12.356Z,478.4
2023-05-14T23:54:56.081Z,480.3
2023-05-14T23:56:39.446Z,481
2023-05-14T23:58:22.823Z,480
